Time;durP1;ratioP1;P1;durP2;ratioP2;P2;SDS_P1;SDS_P2;PMS_P1;PMS_P2;Temp;Humidity;BMP_temperature;BMP_pressure;BME280_temperature;BME280_humidity;BME280_pressure;Samples;Min_cycle;Max_cycle;Signal;HPM_P1;HPM_P2
2022/08/22 00:01:24;;;;;;;5.80;3.28;;;16.70;93.20;;;;;;5073348;28;20098;-67
2022/08/22 00:04:37;;;;;;;5.93;3.60;;;16.70;93.30;;;;;;5073782;28;20385;-67
2022/08/22 00:07:47;;;;;;;4.47;3.22;;;16.70;93.40;;;;;;5004983;28;20026;-67
2022/08/22 00:10:24;;;;;;;4.57;2.95;;;16.80;93.60;;;;;;5067728;28;20028;-68
2022/08/22 00:12:59;;;;;;;4.72;3.15;;;16.70;93.90;;;;;;5068718;28;20050;-67
2022/08/22 00:15:35;;;;;;;6.25;3.50;;;16.70;94.20;;;;;;5055462;28;20045;-67
2022/08/22 00:18:26;;;;;;;4.47;2.75;;;16.70;94.50;;;;;;5067810;28;20497;-67
2022/08/22 00:21:31;;;;;;;3.28;2.95;;;16.60;94.80;;;;;;5073426;28;20428;-67
2022/08/22 00:24:15;;;;;;;5.60;3.20;;;16.70;95.20;;;;;;5073282;28;20028;-67
2022/08/22 00:27:00;;;;;;;4.45;3.58;;;16.60;95.40;;;;;;5073623;28;20044;-66
2022/08/22 00:29:47;;;;;;;7.53;4.00;;;16.70;95.60;;;;;;5070803;28;20059;-67
2022/08/22 00:32:25;;;;;;;5.47;3.30;;;16.70;95.90;;;;;;5070476;28;20032;-67
2022/08/22 00:35:04;;;;;;;5.18;3.20;;;16.70;96.20;;;;;;5073012;28;20376;-66
2022/08/22 00:37:56;;;;;;;4.37;3.03;;;16.70;96.50;;;;;;5053210;28;20041;-67
2022/08/22 00:40:30;;;;;;;4.60;3.30;;;16.60;96.90;;;;;;5050517;28;20033;-67
2022/08/22 00:43:23;;;;;;;4.28;3.50;;;16.60;97.40;;;;;;5053374;28;20060;-67
2022/08/22 00:46:36;;;;;;;5.40;3.20;;;16.60;97.70;;;;;;5052930;28;20075;-67
2022/08/22 00:49:43;;;;;;;3.33;2.83;;;16.50;98.10;;;;;;4986035;28;20377;-66
2022/08/22 00:52:46;;;;;;;5.50;3.25;;;16.40;98.50;;;;;;5052159;28;20032;-66
2022/08/22 00:55:20;;;;;;;4.68;3.25;;;16.30;99.20;;;;;;5051823;28;20497;-66
2022/08/22 00:58:19;;;;;;;6.82;3.33;;;16.30;99.70;;;;;;5053045;28;20058;-68
2022/08/22 01:00:52;;;;;;;4.70;3.38;;;16.20;99.90;;;;;;5049821;28;20039;-67
2022/08/22 01:03:42;;;;;;;3.65;3.08;;;16.10;99.90;;;;;;5052236;28;20028;-66
2022/08/22 01:06:26;;;;;;;4.22;3.10;;;16.10;99.90;;;;;;5046770;28;20059;-67
2022/08/22 01:09:05;;;;;;;3.72;3.00;;;16.00;99.90;;;;;;5034470;28;20029;-68
2022/08/22 01:12:04;;;;;;;5.00;3.35;;;16.00;99.90;;;;;;5052901;28;20108;-67
2022/08/22 01:14:32;;;;;;;4.47;3.00;;;15.90;99.90;;;;;;5052504;28;20115;-66
2022/08/22 01:16:59;;;;;;;4.82;3.38;;;15.90;99.90;;;;;;5048511;28;20522;-67
2022/08/22 01:19:40;;;;;;;4.45;2.90;;;15.80;99.90;;;;;;5048574;28;20021;-67
2022/08/22 01:22:18;;;;;;;6.35;3.65;;;15.80;99.90;;;;;;5051207;28;20490;-66
2022/08/22 01:25:16;;;;;;;4.28;3.30;;;15.70;99.90;;;;;;5052393;28;20051;-67
2022/08/22 01:27:46;;;;;;;4.55;3.03;;;15.70;99.90;;;;;;5051390;28;20460;-67
2022/08/22 01:30:24;;;;;;;5.72;3.15;;;15.70;99.90;;;;;;5051217;28;20025;-66
2022/08/22 01:33:07;;;;;;;6.13;3.15;;;15.70;99.90;;;;;;5049880;28;20033;-67
2022/08/22 01:36:13;;;;;;;9.20;3.95;;;15.70;99.90;;;;;;5051717;27;20493;-67
2022/08/22 01:39:06;;;;;;;5.45;3.60;;;15.70;99.90;;;;;;5070862;28;20473;-67
2022/08/22 01:41:53;;;;;;;4.80;3.53;;;15.70;99.90;;;;;;5054137;28;20028;-68
2022/08/22 01:44:42;;;;;;;3.80;2.88;;;15.60;99.90;;;;;;5071036;28;20025;-67
2022/08/22 01:47:15;;;;;;;5.35;3.10;;;15.60;99.90;;;;;;5060404;28;20082;-67
2022/08/22 01:49:59;;;;;;;6.57;3.70;;;15.60;99.90;;;;;;5071700;28;20025;-67
2022/08/22 01:53:01;;;;;;;6.28;3.47;;;15.50;99.90;;;;;;5069809;28;20174;-67
2022/08/22 01:55:39;;;;;;;3.70;2.97;;;15.50;99.90;;;;;;5068428;28;20036;-66
2022/08/22 01:58:35;;;;;;;7.22;3.50;;;15.40;99.90;;;;;;5070595;28;20078;-67
2022/08/22 02:01:09;;;;;;;4.10;2.80;;;15.40;99.90;;;;;;5042166;28;20045;-67
2022/08/22 02:03:35;;;;;;;5.82;3.22;;;15.40;99.90;;;;;;5072469;28;20024;-67
2022/08/22 02:06:15;;;;;;;5.40;3.50;;;15.40;99.90;;;;;;5067061;28;20401;-67
2022/08/22 02:09:05;;;;;;;4.32;2.95;;;15.30;99.90;;;;;;5071711;28;20035;-67
2022/08/22 02:11:42;;;;;;;5.07;3.45;;;15.30;99.90;;;;;;5066393;28;20139;-67
2022/08/22 02:14:36;;;;;;;7.10;3.15;;;15.30;99.90;;;;;;5061429;28;20033;-67
2022/08/22 02:18:08;;;;;;;5.13;3.70;;;15.20;99.90;;;;;;5066356;28;20039;-67
2022/08/22 02:20:58;;;;;;;5.03;3.20;;;15.20;99.90;;;;;;5008025;28;20137;-66
2022/08/22 02:23:47;;;;;;;4.40;3.25;;;15.30;99.90;;;;;;5007465;28;20034;-66
2022/08/22 02:26:45;;;;;;;6.40;3.58;;;15.20;99.90;;;;;;5007863;28;20502;-67
2022/08/22 02:29:20;;;;;;;7.63;3.55;;;15.20;99.90;;;;;;4998522;28;20053;-66
2022/08/22 02:31:57;;;;;;;7.05;3.58;;;15.20;99.90;;;;;;5008166;28;20034;-67
2022/08/22 02:34:49;;;;;;;6.90;3.42;;;15.20;99.90;;;;;;5000876;28;20022;-67
2022/08/22 02:37:29;;;;;;;4.93;3.65;;;15.10;99.90;;;;;;5000513;28;20129;-67
2022/08/22 02:40:04;;;;;;;;;;;15.00;99.90;;;;;;5004471;28;20084;-67
2022/08/22 02:42:59;;;;;;;5.05;3.35;;;15.00;99.90;;;;;;5007248;28;19913;-67
2022/08/22 02:45:59;;;;;;;3.45;2.60;;;15.00;99.90;;;;;;5007992;28;20253;-67
2022/08/22 02:48:43;;;;;;;4.57;3.38;;;14.90;99.90;;;;;;5007498;28;20427;-67
2022/08/22 02:51:52;;;;;;;4.40;2.85;;;14.90;99.90;;;;;;5041982;28;20099;-68
2022/08/22 02:54:35;;;;;;;5.68;3.58;;;14.80;99.90;;;;;;5067288;28;20021;-67
2022/08/22 02:57:12;;;;;;;4.97;3.47;;;14.80;99.90;;;;;;5068577;28;20044;-67
2022/08/22 03:00:17;;;;;;;5.50;3.42;;;14.80;99.90;;;;;;5070068;28;20050;-67
2022/08/22 03:02:57;;;;;;;6.40;4.20;;;14.80;99.90;;;;;;5066997;28;20063;-67
2022/08/22 03:05:35;;;;;;;5.32;3.90;;;14.70;99.90;;;;;;5066865;28;20496;-68
2022/08/22 03:08:11;;;;;;;7.10;4.20;;;14.70;99.90;;;;;;5067827;28;20024;-68
2022/08/22 03:10:44;;;;;;;5.68;3.67;;;14.70;99.90;;;;;;5067669;28;20135;-67
2022/08/22 03:13:11;;;;;;;7.07;3.80;;;14.60;99.90;;;;;;5068072;28;20381;-65
2022/08/22 03:15:51;;;;;;;5.53;3.53;;;14.60;99.90;;;;;;5067785;28;20115;-68
2022/08/22 03:18:25;;;;;;;4.40;3.35;;;14.60;99.90;;;;;;5070597;28;20020;-68
2022/08/22 03:21:10;;;;;;;4.40;3.38;;;14.50;99.90;;;;;;5069457;28;20036;-66
2022/08/22 03:23:49;;;;;;;4.20;3.25;;;14.50;99.90;;;;;;5071541;28;20029;-67
2022/08/22 03:26:18;;;;;;;6.22;3.53;;;14.40;99.90;;;;;;5072298;28;20461;-67
2022/08/22 03:28:55;;;;;;;5.10;3.50;;;14.40;99.90;;;;;;5066887;28;20488;-66
2022/08/22 03:31:29;;;;;;;6.95;4.32;;;14.40;99.90;;;;;;5068866;28;20050;-66
2022/08/22 03:34:17;;;;;;;5.03;3.90;;;14.40;99.90;;;;;;5069755;28;20037;-66
2022/08/22 03:36:56;;;;;;;6.18;3.90;;;14.40;99.90;;;;;;5066536;28;20146;-67
2022/08/22 03:39:44;;;;;;;7.07;3.90;;;14.40;99.90;;;;;;5066153;28;20053;-66
2022/08/22 03:42:34;;;;;;;7.80;4.85;;;14.40;99.90;;;;;;5066974;28;20404;-66
2022/08/22 03:45:21;;;;;;;7.63;4.27;;;14.30;99.90;;;;;;5072613;28;20028;-67
2022/08/22 03:48:14;;;;;;;6.90;4.30;;;14.30;99.90;;;;;;5067653;28;20282;-66
2022/08/22 03:51:10;;;;;;;6.63;4.60;;;14.30;99.90;;;;;;5068750;28;20099;-67
2022/08/22 03:53:52;;;;;;;9.27;4.65;;;14.30;99.90;;;;;;5066766;28;20056;-67
2022/08/22 03:56:43;;;;;;;5.50;3.97;;;14.30;99.90;;;;;;5072527;28;20036;-67
2022/08/22 03:59:14;;;;;;;;;;;14.30;99.90;;;;;;5073483;28;20070;-67
2022/08/22 04:01:52;;;;;;;6.25;4.15;;;14.30;99.90;;;;;;5073723;28;19908;-66
2022/08/22 04:04:56;;;;;;;10.00;4.60;;;14.20;99.90;;;;;;5069356;28;20362;-67
2022/08/22 04:07:50;;;;;;;7.97;4.55;;;14.20;99.90;;;;;;5070369;28;20473;-67
2022/08/22 04:10:36;;;;;;;5.88;4.40;;;14.20;99.90;;;;;;5068952;28;20032;-66
2022/08/22 04:13:42;;;;;;;5.60;4.32;;;14.20;99.90;;;;;;5070087;28;20033;-66
2022/08/22 04:16:39;;;;;;;9.35;4.60;;;14.20;99.90;;;;;;5052299;28;20101;-71
2022/08/22 04:19:33;;;;;;;8.70;4.65;;;14.20;99.90;;;;;;5052919;28;20079;-67
2022/08/22 04:22:38;;;;;;;7.28;3.95;;;14.20;99.90;;;;;;5073399;28;20033;-67
2022/08/22 04:25:17;;;;;;;8.55;4.50;;;14.20;99.90;;;;;;5065265;28;20025;-67
2022/08/22 04:27:52;;;;;;;6.28;4.50;;;14.20;99.90;;;;;;5071728;28;20032;-67
2022/08/22 04:30:26;;;;;;;6.28;4.13;;;14.20;99.90;;;;;;5072546;28;20086;-67
2022/08/22 04:33:13;;;;;;;5.63;4.05;;;14.10;99.90;;;;;;5073168;28;20047;-67
2022/08/22 04:35:56;;;;;;;7.53;3.97;;;14.10;99.90;;;;;;5065514;28;20122;-67
2022/08/22 04:38:29;;;;;;;8.18;4.03;;;14.10;99.90;;;;;;5070366;28;20025;-67
2022/08/22 04:41:05;;;;;;;9.35;5.00;;;14.00;99.90;;;;;;5072954;28;20028;-66
2022/08/22 04:43:40;;;;;;;7.47;5.30;;;14.00;99.90;;;;;;5053890;28;20440;-67
2022/08/22 04:46:18;;;;;;;6.60;4.35;;;14.10;99.90;;;;;;5064963;28;20067;-68
2022/08/22 04:49:11;;;;;;;7.70;5.57;;;14.10;99.90;;;;;;5065309;28;20016;-66
2022/08/22 04:51:52;;;;;;;9.43;5.43;;;14.20;99.90;;;;;;5064954;28;20122;-67
2022/08/22 04:54:36;;;;;;;6.43;4.85;;;14.20;99.90;;;;;;5071103;28;20032;-66
2022/08/22 04:57:46;;;;;;;7.78;4.97;;;14.20;99.90;;;;;;5072333;28;20029;-66
2022/08/22 05:00:14;;;;;;;8.63;5.38;;;14.20;99.90;;;;;;5043607;28;20036;-67
2022/08/22 05:02:49;;;;;;;9.25;5.05;;;14.30;99.90;;;;;;5072231;28;20067;-67
2022/08/22 05:05:22;;;;;;;6.95;5.35;;;14.30;99.90;;;;;;5069919;28;20113;-67
2022/08/22 05:07:56;;;;;;;7.07;5.10;;;14.30;99.90;;;;;;5068767;28;20064;-67
2022/08/22 05:10:36;;;;;;;8.68;5.13;;;14.40;99.90;;;;;;5067923;28;20107;-66
2022/08/22 05:13:18;;;;;;;8.38;5.10;;;14.40;99.90;;;;;;5070465;28;20020;-66
2022/08/22 05:15:48;;;;;;;8.80;5.65;;;14.50;99.90;;;;;;5064825;28;20389;-65
2022/08/22 05:18:25;;;;;;;;;;;14.60;99.90;;;;;;5071515;28;20038;-65
2022/08/22 05:20:53;;;;;;;7.28;4.53;;;14.70;99.90;;;;;;5066045;28;19911;-65
2022/08/22 05:23:32;;;;;;;9.85;5.55;;;14.80;99.90;;;;;;5070843;28;20040;-65
2022/08/22 05:26:01;;;;;;;13.90;5.03;;;14.90;99.90;;;;;;5068616;28;20116;-65
2022/08/22 05:28:45;;;;;;;6.10;4.80;;;14.90;99.90;;;;;;5070783;28;20032;-65
2022/08/22 05:31:21;;;;;;;8.77;5.18;;;15.00;99.90;;;;;;5071236;28;20024;-65
2022/08/22 05:33:52;;;;;;;7.40;5.30;;;15.00;99.90;;;;;;5071449;28;20037;-65
2022/08/22 05:36:25;;;;;;;7.78;5.55;;;15.00;99.90;;;;;;5068806;28;20044;-65
2022/08/22 05:39:06;;;;;;;7.95;5.32;;;15.10;99.90;;;;;;5067782;28;20107;-65
2022/08/22 05:41:36;;;;;;;10.10;5.90;;;15.20;99.90;;;;;;5052844;28;20060;-67
2022/08/22 05:44:02;;;;;;;8.77;5.15;;;15.30;99.90;;;;;;5071702;28;20481;-66
2022/08/22 05:46:37;;;;;;;8.00;6.03;;;15.30;99.90;;;;;;5067231;28;20040;-67
2022/08/22 05:49:06;;;;;;;6.07;4.95;;;15.50;99.90;;;;;;5052782;28;20372;-66
2022/08/22 05:51:45;;;;;;;14.00;5.57;;;15.60;99.90;;;;;;5068719;28;20112;-67
2022/08/22 05:54:20;;;;;;;9.98;5.70;;;15.60;99.90;;;;;;5067185;28;20528;-67
2022/08/22 05:56:52;;;;;;;9.27;5.60;;;15.80;99.90;;;;;;5071433;28;20090;-67
2022/08/22 05:59:24;;;;;;;8.18;5.60;;;15.90;99.90;;;;;;5070735;28;20028;-67
2022/08/22 06:02:09;;;;;;;11.50;6.05;;;16.00;99.90;;;;;;5067488;28;20043;-67
2022/08/22 06:04:40;;;;;;;9.50;5.50;;;16.10;99.90;;;;;;5066858;28;20052;-66
2022/08/22 06:07:13;;;;;;;7.57;6.00;;;16.20;99.90;;;;;;5062165;28;20107;-68
2022/08/22 06:09:41;;;;;;;10.05;5.50;;;16.30;99.90;;;;;;5070971;28;20474;-67
2022/08/22 06:12:17;;;;;;;9.80;5.00;;;16.40;99.90;;;;;;5070985;28;20028;-68
2022/08/22 06:14:45;;;;;;;6.72;5.05;;;16.50;99.90;;;;;;5064820;28;20021;-69
2022/08/22 06:17:26;;;;;;;8.13;4.90;;;16.60;99.90;;;;;;5068610;28;20473;-69
2022/08/22 06:19:53;;;;;;;10.23;6.18;;;16.60;99.90;;;;;;5071288;28;20032;-69
2022/08/22 06:22:30;;;;;;;8.52;5.97;;;16.70;99.90;;;;;;5069806;28;20138;-69
2022/08/22 06:25:19;;;;;;;9.38;5.15;;;16.90;99.90;;;;;;5069649;28;20025;-68
2022/08/22 06:27:48;;;;;;;5.85;4.85;;;17.00;99.90;;;;;;5070685;28;20031;-68
2022/08/22 06:30:17;;;;;;;7.97;4.38;;;17.10;99.90;;;;;;5070019;28;20071;-68
2022/08/22 06:32:49;;;;;;;9.47;5.03;;;17.20;99.90;;;;;;5067295;28;20107;-68
2022/08/22 06:35:23;;;;;;;6.32;4.45;;;17.30;99.90;;;;;;5066170;28;20056;-67
2022/08/22 06:37:52;;;;;;;8.45;4.93;;;17.40;99.90;;;;;;5066315;28;20024;-67
2022/08/22 06:40:17;;;;;;;7.07;4.20;;;17.50;99.90;;;;;;5069766;28;20024;-70
2022/08/22 06:42:49;;;;;;;8.45;4.35;;;17.70;99.90;;;;;;5047112;28;20082;-68
2022/08/22 06:45:34;;;;;;;9.27;4.75;;;17.80;99.90;;;;;;5068009;28;20055;-69
2022/08/22 06:48:05;;;;;;;8.30;4.32;;;17.90;99.90;;;;;;5067341;28;20091;-69
2022/08/22 06:50:35;;;;;;;7.35;4.10;;;18.00;99.90;;;;;;5067671;28;20031;-69
2022/08/22 06:53:30;;;;;;;6.18;3.85;;;18.20;99.90;;;;;;5054858;28;20016;-69
2022/08/22 06:56:01;;;;;;;4.10;3.65;;;18.30;99.90;;;;;;5071169;28;20036;-69
2022/08/22 06:58:50;;;;;;;7.63;4.13;;;18.50;99.90;;;;;;5071674;28;20107;-69
2022/08/22 07:01:21;;;;;;;6.28;3.67;;;18.70;99.90;;;;;;5067905;28;20410;-69
2022/08/22 07:03:53;;;;;;;5.68;3.90;;;18.90;99.90;;;;;;5072535;28;20382;-70
2022/08/22 07:06:29;;;;;;;5.40;3.88;;;19.10;99.90;;;;;;5072306;28;20032;-70
2022/08/22 07:08:55;;;;;;;6.00;3.92;;;19.20;99.90;;;;;;5070371;28;20037;-69
2022/08/22 07:11:51;;;;;;;7.57;5.35;;;19.30;99.90;;;;;;5073710;28;20032;-69
2022/08/22 07:14:26;;;;;;;14.50;9.05;;;19.40;99.90;;;;;;5053058;28;20040;-69
2022/08/22 07:17:02;;;;;;;8.77;4.05;;;19.50;99.90;;;;;;5073951;28;20429;-67
2022/08/22 07:19:44;;;;;;;7.07;4.43;;;19.70;99.90;;;;;;5072633;28;20457;-68
2022/08/22 07:22:20;;;;;;;11.18;5.95;;;19.80;99.90;;;;;;5071995;28;20043;-67
2022/08/22 07:24:55;;;;;;;4.28;3.20;;;19.90;99.90;;;;;;5069372;28;20029;-66
2022/08/22 07:27:45;;;;;;;6.13;4.22;;;20.10;99.50;;;;;;5073399;28;20047;-66
2022/08/22 07:30:14;;;;;;;3.72;3.30;;;20.20;99.10;;;;;;5073113;28;20024;-68
2022/08/22 07:33:00;;;;;;;4.53;3.28;;;20.30;98.70;;;;;;5072952;28;20032;-67
2022/08/22 07:35:35;;;;;;;5.60;3.30;;;20.50;98.60;;;;;;5072660;28;20029;-66
2022/08/22 07:38:23;;;;;;;5.40;3.30;;;20.60;98.40;;;;;;5068883;28;20033;-66
2022/08/22 07:41:04;;;;;;;5.32;3.28;;;20.70;98.20;;;;;;5070039;28;20115;-66
2022/08/22 07:43:53;;;;;;;7.30;3.20;;;20.80;98.20;;;;;;5069408;28;20983;-66
2022/08/22 07:46:42;;;;;;;5.80;3.67;;;20.90;98.20;;;;;;5066072;28;20035;-66
2022/08/22 07:49:24;;;;;;;3.78;3.38;;;21.00;97.70;;;;;;5066335;28;20036;-66
2022/08/22 07:51:50;;;;;;;5.85;3.15;;;21.10;97.50;;;;;;5073463;28;20461;-67
2022/08/22 07:54:23;;;;;;;6.72;3.75;;;21.10;97.50;;;;;;5072260;28;20052;-65
2022/08/22 07:57:06;;;;;;;6.85;3.50;;;21.30;97.40;;;;;;5073543;28;20050;-67
2022/08/22 07:59:37;;;;;;;5.93;3.58;;;21.40;97.20;;;;;;5055348;28;20047;-67
2022/08/22 08:02:09;;;;;;;4.93;3.50;;;21.40;97.00;;;;;;5066771;28;20108;-67
2022/08/22 08:04:37;;;;;;;7.97;3.55;;;21.50;96.80;;;;;;5071692;28;20028;-67
2022/08/22 08:07:07;;;;;;;5.65;3.45;;;21.70;96.60;;;;;;5071103;28;20043;-67
2022/08/22 08:09:39;;;;;;;6.75;3.70;;;21.80;96.00;;;;;;5066375;28;20112;-67
2022/08/22 08:12:09;;;;;;;6.32;3.78;;;21.90;95.60;;;;;;5071901;28;20090;-66
2022/08/22 08:14:38;;;;;;;10.95;3.60;;;21.90;95.60;;;;;;5068722;28;20056;-67
2022/08/22 08:17:37;;;;;;;4.00;3.60;;;22.00;95.40;;;;;;5064243;28;20128;-67
2022/08/22 08:20:10;;;;;;;4.53;3.58;;;22.10;95.10;;;;;;5013233;28;20072;-67
2022/08/22 08:22:37;;;;;;;3.25;2.97;;;22.20;94.60;;;;;;5064822;28;20031;-67
2022/08/22 08:25:06;;;;;;;7.22;4.03;;;22.30;94.50;;;;;;5066058;28;20554;-67
2022/08/22 08:30:43;;;;;;;7.15;4.22;;;22.70;95.00;;;;;;5071784;28;20421;-66
2022/08/22 08:33:15;;;;;;;7.40;4.75;;;22.80;94.90;;;;;;5065058;28;20037;-66
2022/08/22 08:35:43;;;;;;;4.65;3.95;;;23.10;95.00;;;;;;5065944;28;20060;-66
2022/08/22 08:38:15;;;;;;;9.75;4.38;;;23.10;94.90;;;;;;5065057;28;20359;-66
2022/08/22 08:41:05;;;;;;;10.15;4.20;;;23.10;95.10;;;;;;5066426;28;20385;-66
2022/08/22 08:43:44;;;;;;;5.35;4.28;;;23.20;94.80;;;;;;5057512;28;20103;-67
2022/08/22 08:46:30;;;;;;;7.78;5.05;;;23.30;94.60;;;;;;5071529;28;20111;-66
2022/08/22 08:49:11;;;;;;;11.40;4.88;;;23.50;94.80;;;;;;5072205;28;20052;-66
2022/08/22 08:52:15;;;;;;;8.40;3.90;;;23.60;94.40;;;;;;5075815;28;20081;-67
2022/08/22 08:55:02;;;;;;;5.28;4.00;;;23.70;94.50;;;;;;5049277;28;20052;-66
2022/08/22 08:57:52;;;;;;;8.00;4.50;;;23.80;94.00;;;;;;5066376;28;20562;-66
2022/08/22 09:00:37;;;;;;;7.20;4.00;;;24.10;93.30;;;;;;5070305;28;20037;-67
2022/08/22 09:03:27;;;;;;;8.00;3.80;;;24.10;93.30;;;;;;5078527;28;20035;-66
2022/08/22 09:06:05;;;;;;;5.03;4.07;;;24.40;93.20;;;;;;5071971;28;20459;-67
2022/08/22 09:09:05;;;;;;;5.47;4.40;;;24.50;92.10;;;;;;5063887;28;20056;-66
2022/08/22 09:11:46;;;;;;;6.18;4.00;;;24.60;91.90;;;;;;5070306;28;20024;-67
2022/08/22 09:14:32;;;;;;;6.22;4.30;;;24.70;91.60;;;;;;5072207;28;20020;-66
2022/08/22 09:17:22;;;;;;;5.60;4.00;;;24.80;91.40;;;;;;5070299;28;20068;-66
2022/08/22 09:19:54;;;;;;;4.57;3.90;;;25.00;91.10;;;;;;5072086;28;20047;-68
2022/08/22 09:22:38;;;;;;;6.20;3.88;;;25.10;91.00;;;;;;5070464;28;20029;-66
2022/08/22 09:25:10;;;;;;;4.82;4.28;;;25.20;90.70;;;;;;5071803;28;20510;-67
2022/08/22 09:28:14;;;;;;;4.32;3.60;;;25.30;90.30;;;;;;5068687;28;20046;-67
2022/08/22 09:30:55;;;;;;;4.60;4.20;;;25.30;90.20;;;;;;5021360;28;20109;-67
2022/08/22 09:33:28;;;;;;;7.68;3.80;;;25.50;90.30;;;;;;5073137;28;20021;-67
2022/08/22 09:36:02;;;;;;;4.72;3.90;;;25.60;89.40;;;;;;5066457;28;20124;-67
2022/08/22 09:39:00;;;;;;;4.28;3.65;;;25.60;87.40;;;;;;5068960;28;20115;-67
2022/08/22 09:41:32;;;;;;;4.28;3.88;;;25.70;87.90;;;;;;5059799;28;20060;-67
2022/08/22 09:44:18;;;;;;;8.00;3.95;;;25.80;87.50;;;;;;5071626;28;20055;-66
2022/08/22 09:47:05;;;;;;;5.75;3.90;;;25.90;87.90;;;;;;5068452;28;20032;-66
2022/08/22 09:50:15;;;;;;;4.22;3.75;;;26.00;87.10;;;;;;5062495;28;20509;-66
2022/08/22 09:53:18;;;;;;;8.40;4.95;;;26.10;87.40;;;;;;4966413;28;20027;-66
2022/08/22 09:55:53;;;;;;;5.70;3.85;;;26.20;86.90;;;;;;5066305;28;20036;-66
2022/08/22 09:58:46;;;;;;;6.40;3.97;;;26.40;86.20;;;;;;5068597;28;20389;-67
2022/08/22 10:01:24;;;;;;;5.53;4.20;;;26.40;83.90;;;;;;5063520;28;20029;-67
2022/08/22 10:04:15;;;;;;;3.42;3.13;;;26.50;83.30;;;;;;5070747;28;20047;-67
2022/08/22 10:06:43;;;;;;;4.43;3.35;;;26.60;81.30;;;;;;5069991;28;20063;-67
2022/08/22 10:09:23;;;;;;;5.60;3.30;;;26.80;79.30;;;;;;5070312;28;20528;-68
2022/08/22 10:12:14;;;;;;;3.80;2.88;;;26.90;76.20;;;;;;5070656;28;20063;-68
2022/08/22 10:14:49;;;;;;;4.28;3.20;;;27.10;76.00;;;;;;5064329;28;20029;-67
2022/08/22 10:17:29;;;;;;;4.82;3.15;;;27.30;75.40;;;;;;5069435;28;20083;-68
2022/08/22 10:20:09;;;;;;;3.88;3.13;;;27.40;74.70;;;;;;5070282;28;20106;-68
2022/08/22 10:22:48;;;;;;;;;;;27.50;74.70;;;;;;5071009;28;20025;-67
2022/08/22 10:25:20;;;;;;;3.28;2.95;;;27.70;72.80;;;;;;5070297;28;19909;-67
2022/08/22 10:28:01;;;;;;;6.35;3.47;;;27.80;69.90;;;;;;5065234;28;20078;-67
2022/08/22 10:31:00;;;;;;;4.65;3.25;;;28.10;70.40;;;;;;5064162;28;20033;-67
2022/08/22 10:33:49;;;;;;;3.88;3.22;;;28.00;70.30;;;;;;5063267;28;20024;-67
2022/08/22 10:36:54;;;;;;;6.47;3.22;;;28.10;70.40;;;;;;5069429;28;20048;-68
2022/08/22 10:39:29;;;;;;;5.15;3.00;;;28.40;68.50;;;;;;5045009;28;20055;-67
2022/08/22 10:42:15;;;;;;;5.45;3.53;;;28.50;68.30;;;;;;5070457;28;20029;-68
2022/08/22 10:45:02;;;;;;;3.97;2.88;;;28.80;68.80;;;;;;5067503;28;20024;-67
2022/08/22 10:47:56;;;;;;;4.07;3.33;;;28.80;68.90;;;;;;5070132;28;20025;-67
2022/08/22 10:50:36;;;;;;;5.45;3.22;;;29.00;67.90;;;;;;5052872;28;20448;-67
2022/08/22 10:53:29;;;;;;;4.47;3.30;;;29.20;67.70;;;;;;5070656;28;20178;-67
2022/08/22 10:56:33;;;;;;;5.32;3.67;;;29.40;67.30;;;;;;5070427;28;20075;-67
2022/08/22 10:59:17;;;;;;;4.88;3.47;;;29.40;67.40;;;;;;5070336;28;20037;-67
2022/08/22 11:02:19;;;;;;;6.43;4.00;;;29.30;65.90;;;;;;5070677;28;20036;-67
2022/08/22 11:05:00;;;;;;;4.97;3.80;;;29.50;66.10;;;;;;5067903;28;20381;-67
2022/08/22 11:07:47;;;;;;;6.57;3.65;;;29.80;85.90;;;;;;5070637;28;20677;-67
2022/08/22 11:10:30;;;;;;;3.88;3.13;;;30.00;74.70;;;;;;5070088;28;20043;-67
2022/08/22 11:13:29;;;;;;;4.60;3.58;;;30.20;63.70;;;;;;5071025;28;20024;-65
2022/08/22 11:16:01;;;;;;;3.53;3.17;;;30.60;63.10;;;;;;5059673;28;20111;-67
2022/08/22 11:18:37;;;;;;;5.18;3.10;;;30.80;62.50;;;;;;5069693;28;20032;-67
2022/08/22 11:21:29;;;;;;;8.50;3.45;;;31.10;61.40;;;;;;5064553;28;20036;-67
2022/08/22 11:24:21;;;;;;;4.88;4.03;;;30.90;60.80;;;;;;5040879;28;20082;-67
2022/08/22 11:26:59;;;;;;;4.25;3.35;;;30.40;62.00;;;;;;5018248;28;20043;-67
2022/08/22 11:29:25;;;;;;;7.13;3.63;;;30.20;62.50;;;;;;5069050;28;20037;-67
2022/08/22 11:32:35;;;;;;;3.90;3.30;;;30.00;62.30;;;;;;5070070;28;20427;-67
2022/08/22 11:35:23;;;;;;;5.15;3.83;;;30.00;63.10;;;;;;5044100;28;20037;-66
2022/08/22 11:38:25;;;;;;;5.10;3.40;;;30.00;63.20;;;;;;5069488;28;20044;-67
2022/08/22 11:41:04;;;;;;;3.80;3.38;;;30.00;62.90;;;;;;5073397;28;20032;-67
2022/08/22 11:44:00;;;;;;;4.20;3.80;;;29.90;63.70;;;;;;5073058;28;20426;-67
2022/08/22 11:46:39;;;;;;;5.63;3.80;;;29.90;63.40;;;;;;5066915;28;20029;-66
2022/08/22 11:49:32;;;;;;;6.07;3.53;;;29.60;63.40;;;;;;5073003;28;20028;-66
2022/08/22 11:52:22;;;;;;;3.65;3.35;;;29.40;63.80;;;;;;5073850;28;20111;-66
2022/08/22 11:55:04;;;;;;;6.35;3.70;;;29.30;63.60;;;;;;5073501;28;20020;-67
2022/08/22 11:58:02;;;;;;;5.53;4.07;;;29.30;64.10;;;;;;5064447;28;20040;-67
2022/08/22 12:00:50;;;;;;;4.18;2.92;;;29.50;63.00;;;;;;4996752;28;20124;-66
2022/08/22 12:03:45;;;;;;;3.97;3.58;;;29.70;62.80;;;;;;5065606;28;20504;-67
2022/08/22 12:06:29;;;;;;;5.75;3.47;;;29.80;62.80;;;;;;5068263;28;20170;-67
2022/08/22 12:09:14;;;;;;;4.47;3.30;;;30.00;62.30;;;;;;5072029;28;20048;-67
2022/08/22 12:11:57;;;;;;;4.05;3.30;;;30.10;62.10;;;;;;5073264;28;20032;-67
2022/08/22 12:15:00;;;;;;;5.30;3.70;;;30.40;61.70;;;;;;5072625;28;20047;-66
2022/08/22 12:17:34;;;;;;;7.45;3.30;;;30.40;60.90;;;;;;5071973;28;20036;-67
2022/08/22 12:20:19;;;;;;;4.07;3.25;;;30.20;61.10;;;;;;5069503;28;20085;-67
2022/08/22 12:22:59;;;;;;;4.57;3.70;;;30.10;62.10;;;;;;5071082;28;20032;-67
2022/08/22 12:25:53;;;;;;;4.80;3.35;;;29.80;61.70;;;;;;5066330;28;20024;-67
2022/08/22 12:28:27;;;;;;;3.95;3.28;;;29.50;62.40;;;;;;5067080;28;20094;-67
2022/08/22 12:31:26;;;;;;;6.53;3.05;;;29.50;63.10;;;;;;5072181;28;20035;-67
2022/08/22 12:34:23;;;;;;;3.92;3.55;;;29.70;62.50;;;;;;5068579;28;20108;-66
2022/08/22 12:37:04;;;;;;;6.40;3.33;;;29.70;61.70;;;;;;5076274;28;20056;-66
2022/08/22 12:39:43;;;;;;;5.28;3.65;;;29.60;61.80;;;;;;5072145;28;20578;-65
2022/08/22 12:42:29;;;;;;;4.80;3.40;;;29.80;61.30;;;;;;5077472;28;20036;-66
2022/08/22 12:45:14;;;;;;;4.18;3.50;;;29.80;61.30;;;;;;5075885;28;20074;-66
2022/08/22 12:48:01;;;;;;;4.25;3.10;;;29.80;60.90;;;;;;5072480;28;20384;-66
2022/08/22 12:50:37;;;;;;;3.50;3.15;;;29.60;61.00;;;;;;5071433;28;20029;-67
2022/08/22 12:53:29;;;;;;;4.22;3.58;;;29.40;61.50;;;;;;5072461;28;20103;-66
2022/08/22 12:56:26;;;;;;;3.83;3.30;;;29.10;61.50;;;;;;5072089;28;20032;-66
2022/08/22 12:58:58;;;;;;;3.83;3.42;;;28.90;62.40;;;;;;5068949;28;20044;-66
2022/08/22 13:01:24;;;;;;;3.53;2.88;;;28.60;62.40;;;;;;5070123;28;20027;-66
2022/08/22 13:03:56;;;;;;;3.72;3.42;;;28.40;62.60;;;;;;5071541;28;20103;-66
2022/08/22 13:06:34;;;;;;;5.43;3.08;;;28.30;62.70;;;;;;5070872;28;20032;-67
2022/08/22 13:09:08;;;;;;;6.18;3.60;;;28.30;62.50;;;;;;5071945;28;20481;-66
2022/08/22 13:11:38;;;;;;;5.60;3.38;;;28.50;63.20;;;;;;5069056;28;20021;-66
2022/08/22 13:14:07;;;;;;;3.58;2.85;;;28.90;61.90;;;;;;5068112;28;20021;-65
2022/08/22 13:16:40;;;;;;;4.07;3.10;;;29.10;60.30;;;;;;5071383;28;20032;-66
2022/08/22 13:19:11;;;;;;;5.72;3.17;;;29.10;60.90;;;;;;5065694;28;20556;-66
2022/08/22 13:21:43;;;;;;;7.45;3.28;;;28.90;61.30;;;;;;5071773;28;20025;-65
2022/08/22 13:24:16;;;;;;;2.95;2.75;;;28.70;61.60;;;;;;5071631;28;20029;-66
2022/08/22 13:26:49;;;;;;;2.92;2.65;;;28.60;61.50;;;;;;5071588;28;20036;-66
2022/08/22 13:29:33;;;;;;;5.97;2.88;;;28.50;61.70;;;;;;5065404;28;20099;-66
2022/08/22 13:32:01;;;;;;;3.40;3.10;;;28.50;61.30;;;;;;5071743;28;20056;-66
2022/08/22 13:34:50;;;;;;;4.47;3.25;;;28.40;61.50;;;;;;5070700;28;20040;-66
2022/08/22 13:37:27;;;;;;;3.30;3.00;;;28.30;61.20;;;;;;5062317;28;20102;-66
2022/08/22 13:40:00;;;;;;;5.18;3.10;;;28.20;61.90;;;;;;5063963;28;20036;-65
2022/08/22 13:42:28;;;;;;;4.13;2.90;;;28.10;61.70;;;;;;5070869;28;20108;-66
2022/08/22 13:44:56;;;;;;;4.47;3.05;;;28.00;61.80;;;;;;5071391;28;21672;-66
2022/08/22 13:47:24;;;;;;;3.88;3.42;;;28.00;62.30;;;;;;5070261;28;20033;-65
2022/08/22 13:49:53;;;;;;;3.45;3.05;;;28.00;61.30;;;;;;5071312;28;20024;-65
2022/08/22 13:52:43;;;;;;;3.80;3.20;;;28.00;62.70;;;;;;5070861;28;20036;-66
2022/08/22 13:55:29;;;;;;;5.53;2.90;;;28.20;61.60;;;;;;5070363;28;20032;-66
2022/08/22 13:58:14;;;;;;;5.82;2.75;;;28.60;61.50;;;;;;5070601;28;20146;-66
2022/08/22 14:01:17;;;;;;;4.07;2.60;;;29.10;60.90;;;;;;5070413;28;20171;-66
2022/08/22 14:03:52;;;;;;;3.13;2.70;;;29.50;60.20;;;;;;5070956;28;20056;-66
2022/08/22 14:06:28;;;;;;;3.47;3.08;;;29.40;60.10;;;;;;5070473;28;20115;-66
2022/08/22 14:09:00;;;;;;;4.75;2.83;;;29.50;60.40;;;;;;5071481;28;20086;-67